< < Back
Terminal Aerodrome Forecast


Current Version              Previous Versions:   1  2  3  4  5  6  7  8  9  

Terminal Aerodrome Forecast

150
FTUS42 KGSP 281100
TAFAND
TAF
KAND 281136Z 2812/2912 00000KT P6SM SKC
      TEMPO 2812/2813 BKN001
     FM281400 25004KT P6SM FEW045
     FM282300 00000KT P6SM FEW150=



Latest METAR

744
SAUS70 KWBC 291500
MTRAND
METAR KAND 291356Z AUTO 07003KT 10SM CLR 26/17 A3010 RMK AO2 SLP183
T02610172


USA.gov is the U.S. government's official web portal to all federal, state and local government web resources and services.